Impacts TAF Board
For situational awareness. Not to be used for flight planning purposes.
IDs:

KBRO - Brownsville Intl, TX, US

Issued at 1720 UTC 02 Oct 2022
Updated at 1910 UTC 02 Oct 2022
Potential Impact None Slight Moderate High
Time1853Z 02/20Z 02/21Z 02/22Z 02/23Z 03/00Z 03/01Z 03/02Z 03/03Z 03/04Z 03/05Z 03/06Z 03/07Z 03/08Z>>
Type OBS PRVL PRVL PRVL PRVL PRVL PRVL PRVL PRVL PRVL PRVL PRVL PRVL PRVL
VIS 10 >6 >6 >6 >6 >6 >6 >6 >6 >6 >6 >6 >6 >6
CIG 65 60 60 60 60 60 250 250 250 250 250 250 250 250
Cover BKN BKN BKN BKN BKN BKN BKN BKN BKN BKN BKN BKN BKN BKN
FltCat VFR VFR VFR VFR VFR VFR VFR VFR VFR VFR VFR VFR VFR VFR
WX -- -- -- -- -- -- -- -- -- -- -- -- -- --
WDir 60 60 60 60 60 60 60 60 60 60 60 60 60 60
WSpd 12 7 7 7 7 7 5 5 5 5 5 5 5 5
WGst 15 -- -- -- -- -- -- -- -- -- -- -- -- --
WSHgt -- -- -- -- -- -- -- -- -- -- -- -- -- --
WSDir -- -- -- -- -- -- -- -- -- -- -- -- -- --
WSSpd -- -- -- -- -- -- -- -- -- -- -- -- -- --
R13/31
XWnd 12 7 7 7 7 7 5 5 5 5 5 5 5 5
XGst 14 -- -- -- -- -- -- -- -- -- -- -- -- --
HWnd 3 2 2 2 2 2 1 1 1 1 1 1 1 1
HGst 4 -- -- -- -- -- -- -- -- -- -- -- -- --
R18/36
XWnd 10 6 6 6 6 6 4 4 4 4 4 4 4 4
XGst 13 -- -- -- -- -- -- -- -- -- -- -- -- --
HWnd -6 -4 -4 -4 -4 -4 -3 -3 -3 -3 -3 -3 -3 -3
HGst -8 -- -- -- -- -- -- -- -- -- -- -- -- --
Raw TAF
KBRO 021720Z 0218/0318 06007KT P6SM BKN060
  FM030100 06005KT P6SM FEW050 BKN250


Raw METAR
KBRO 021853Z 06012G15KT 10SM BKN065 31/18 A3005 RMK AO2 SLP175 T03060178
KBRO 021753Z 03008G18KT 10SM CLR 31/18 A3007 RMK AO2 SLP181 T03110183 10311 20194 58001
KBRO 021653Z 05006KT 10SM BKN060 30/18 A3008 RMK AO2 SLP185 T03000178

METAR Board
Radar Display
Forecast Discussion
For situational awareness. Not to be used for flight planning purposes.